createdAt,value
2019-03-02T00:01:42.094Z,97070.92
2019-03-02T00:04:10.981Z,97077.25
2019-03-02T00:06:37.941Z,97071.30
2019-03-02T00:09:04.899Z,97082.05
2019-03-02T00:11:31.856Z,97081.76
2019-03-02T00:13:58.613Z,97085.32
2019-03-02T00:16:25.284Z,97080.05
2019-03-02T00:18:52.465Z,97073.27
2019-03-02T00:21:19.915Z,97080.59
2019-03-02T00:23:46.734Z,97091.14
2019-03-02T00:26:13.666Z,97099.22
2019-03-02T00:28:40.564Z,97103.23
2019-03-02T00:31:07.692Z,97097.59
2019-03-02T00:33:34.640Z,97093.29
2019-03-02T00:36:01.974Z,97104.82
2019-03-02T00:38:28.622Z,97108.97
2019-03-02T00:40:55.631Z,97111.31
2019-03-02T00:43:23.643Z,97110.48
2019-03-02T00:45:50.874Z,97105.39
2019-03-02T00:48:18.017Z,97109.91
2019-03-02T00:50:46.183Z,97106.41
2019-03-02T00:53:12.964Z,97112.39
2019-03-02T00:55:39.996Z,97107.45
2019-03-02T00:58:06.868Z,97107.75
2019-03-02T01:00:33.821Z,97102.98
2019-03-02T01:03:00.654Z,97117.60
2019-03-02T01:05:27.286Z,97122.13
2019-03-02T01:07:55.979Z,97117.92
2019-03-02T01:10:22.646Z,97111.00
2019-03-02T01:12:50.394Z,97105.84
2019-03-02T01:15:17.667Z,97120.13
2019-03-02T01:17:45.489Z,97115.95
2019-03-02T01:20:12.400Z,97118.55
2019-03-02T01:25:23.648Z,97106.27
2019-03-02T01:27:50.665Z,97111.39
2019-03-02T01:30:17.544Z,97108.66
2019-03-02T01:32:44.192Z,97107.55
2019-03-02T01:35:12.249Z,97109.80
2019-03-02T01:37:39.946Z,97099.91
2019-03-02T01:40:07.779Z,97110.86
2019-03-02T01:42:34.608Z,97117.97
2019-03-02T01:45:01.263Z,97118.45
2019-03-02T01:47:28.077Z,97117.20
2019-03-02T01:49:54.837Z,97122.48
2019-03-02T01:52:21.633Z,97115.55
2019-03-02T01:54:48.650Z,97116.47
2019-03-02T01:57:17.192Z,97109.26
2019-03-02T01:59:43.917Z,97109.80
2019-03-02T02:02:10.651Z,97105.73
2019-03-02T02:04:37.265Z,97102.20
2019-03-02T02:07:04.590Z,97103.03
2019-03-02T02:09:31.415Z,97104.86
2019-03-02T02:11:58.089Z,97099.85
2019-03-02T02:14:25.574Z,97101.92
2019-03-02T02:16:52.758Z,97099.67
2019-03-02T02:19:19.664Z,97098.97
2019-03-02T02:21:46.304Z,97110.01
2019-03-02T02:24:14.305Z,97124.47
2019-03-02T02:26:43.897Z,97116.33
2019-03-02T02:29:09.557Z,97112.30
2019-03-02T02:31:44.580Z,97113.98
2019-03-02T02:34:05.564Z,97114.41
2019-03-02T02:36:32.248Z,97104.96
2019-03-02T02:38:59.467Z,97109.64
2019-03-02T02:41:26.540Z,97103.67
2019-03-02T02:43:54.384Z,97109.27
2019-03-02T02:46:22.090Z,97102.00
2019-03-02T02:48:48.737Z,97109.64
2019-03-02T02:51:15.591Z,97104.68
2019-03-02T02:53:45.015Z,97105.62
2019-03-02T02:56:14.515Z,97104.61
2019-03-02T02:58:39.281Z,97106.30
2019-03-02T03:01:06.009Z,97120.59
2019-03-02T03:03:33.066Z,97122.24
2019-03-02T03:06:09.199Z,97117.48
2019-03-02T03:08:36.053Z,97112.80
2019-03-02T03:11:06.600Z,97120.48
2019-03-02T03:13:36.016Z,97113.92
2019-03-02T03:15:59.898Z,97120.17
2019-03-02T03:18:26.564Z,97121.36
2019-03-02T03:20:53.470Z,97120.59
2019-03-02T03:23:24.954Z,97129.49
2019-03-02T03:25:55.896Z,97133.05
2019-03-02T03:28:17.400Z,97138.80
2019-03-02T03:30:46.434Z,97132.91
2019-03-02T03:33:21.897Z,97144.72
2019-03-02T03:35:51.776Z,97149.83
2019-03-02T03:40:50.115Z,97143.87
2019-03-02T03:43:16.901Z,97152.16
2019-03-02T03:48:28.089Z,97146.96
2019-03-02T03:50:54.815Z,97141.98
2019-03-02T03:53:26.257Z,97146.67
2019-03-02T03:55:50.349Z,97140.93
2019-03-02T03:58:17.010Z,97147.92
2019-03-02T04:00:43.984Z,97148.80
2019-03-02T04:03:13.794Z,97142.28
2019-03-02T04:05:42.039Z,97136.94
2019-03-02T04:08:08.034Z,97148.38
2019-03-02T04:10:35.931Z,97159.51
2019-03-02T04:13:04.942Z,97160.48
2019-03-02T04:15:40.876Z,97158.87
2019-03-02T04:18:01.795Z,97167.13
2019-03-02T04:20:31.014Z,97172.67
2019-03-02T04:22:57.633Z,97167.21
2019-03-02T04:25:24.523Z,97165.23
2019-03-02T04:27:54.581Z,97175.16
2019-03-02T04:30:20.783Z,97179.73
2019-03-02T04:32:47.479Z,97170.42
2019-03-02T04:35:14.385Z,97180.16
2019-03-02T04:37:41.072Z,97167.36
2019-03-02T04:40:07.721Z,97187.02
2019-03-02T04:42:34.478Z,97178.91
2019-03-02T04:45:01.589Z,97192.72
2019-03-02T04:47:29.680Z,97190.66
2019-03-02T04:49:56.571Z,97196.21
2019-03-02T04:52:23.228Z,97189.22
2019-03-02T04:54:49.966Z,97193.27
2019-03-02T04:57:17.353Z,97195.52
2019-03-02T04:59:44.052Z,97195.52
2019-03-02T05:02:10.721Z,97197.50
2019-03-02T05:04:37.439Z,97203.69
2019-03-02T05:07:06.679Z,97206.48
2019-03-02T05:09:36.329Z,97203.58
2019-03-02T05:12:05.661Z,97207.04
2019-03-02T05:14:32.274Z,97208.27
2019-03-02T05:17:03.399Z,97216.36
2019-03-02T05:19:29.946Z,97214.44
2019-03-02T05:21:59.196Z,97209.77
2019-03-02T05:24:26.966Z,97215.75
2019-03-02T05:26:56.703Z,97214.58
2019-03-02T05:29:22.324Z,97220.42
2019-03-02T05:31:51.804Z,97223.84
2019-03-02T05:34:21.842Z,97223.44
2019-03-02T05:36:52.038Z,97218.62
2019-03-02T05:39:22.598Z,97222.12
2019-03-02T05:41:53.207Z,97224.08
2019-03-02T05:44:21.291Z,97224.16
2019-03-02T05:46:53.080Z,97233.93
2019-03-02T05:49:20.448Z,97230.66
2019-03-02T05:51:49.624Z,97233.24
2019-03-02T05:54:16.553Z,97238.62
2019-03-02T05:56:44.760Z,97242.09
2019-03-02T05:59:26.665Z,97250.39
2019-03-02T06:01:53.493Z,97242.69
2019-03-02T06:04:22.099Z,97250.61
2019-03-02T06:06:50.771Z,97260.52
2019-03-02T06:09:18.085Z,97265.18
2019-03-02T06:11:44.713Z,97269.34
2019-03-02T06:14:13.789Z,97269.61
2019-03-02T06:16:40.585Z,97266.66
2019-03-02T06:19:07.502Z,97277.94
2019-03-02T06:21:34.126Z,97278.66
2019-03-02T06:24:01.599Z,97280.50
2019-03-02T06:26:31.789Z,97291.94
2019-03-02T06:28:58.017Z,97294.87
2019-03-02T06:31:25.377Z,97299.36
2019-03-02T06:33:52.172Z,97306.87
2019-03-02T06:36:18.799Z,97309.70
2019-03-02T06:38:45.434Z,97305.76
2019-03-02T06:41:12.310Z,97297.57
2019-03-02T06:43:39.660Z,97309.33
2019-03-02T06:46:06.342Z,97311.84
2019-03-02T06:48:32.929Z,97316.49
2019-03-02T06:51:02.344Z,97316.39
2019-03-02T06:53:28.240Z,97316.49
2019-03-02T06:56:00.821Z,97319.52
2019-03-02T06:58:29.310Z,97329.93
2019-03-02T07:00:58.470Z,97328.51
2019-03-02T07:03:25.435Z,97333.63
2019-03-02T07:05:52.290Z,97331.92
2019-03-02T07:08:19.225Z,97336.67
2019-03-02T07:10:46.455Z,97341.78
2019-03-02T07:13:13.793Z,97342.66
2019-03-02T07:15:43.657Z,97348.63
2019-03-02T07:18:09.020Z,97344.38
2019-03-02T07:20:35.610Z,97340.56
2019-03-02T07:23:02.645Z,97341.19
2019-03-02T07:25:29.510Z,97356.87
2019-03-02T07:27:56.650Z,97364.14
2019-03-02T07:30:23.548Z,97359.13
2019-03-02T07:32:50.752Z,97351.51
2019-03-02T07:35:19.311Z,97361.66
2019-03-02T07:37:46.753Z,97377.02
2019-03-02T07:40:13.871Z,97374.38
2019-03-02T07:42:40.808Z,97374.66
2019-03-02T07:45:07.463Z,97380.25
2019-03-02T07:47:34.047Z,97381.05
2019-03-02T07:50:01.482Z,97379.52
2019-03-02T07:52:28.665Z,97385.14
2019-03-02T07:54:58.317Z,97390.41
2019-03-02T07:57:24.050Z,97389.90
2019-03-02T07:59:50.743Z,97395.98
2019-03-02T08:02:17.353Z,97402.86
2019-03-02T08:04:44.136Z,97399.30
2019-03-02T08:07:11.041Z,97403.41
2019-03-02T08:09:37.645Z,97400.19
2019-03-02T08:12:04.465Z,97405.65
2019-03-02T08:14:31.631Z,97406.97
2019-03-02T08:16:58.448Z,97409.84
2019-03-02T08:19:25.357Z,97412.66
2019-03-02T08:21:51.950Z,97419.66
2019-03-02T08:24:18.588Z,97412.72
2019-03-02T08:26:46.147Z,97422.16
2019-03-02T08:29:17.741Z,97424.41
2019-03-02T08:34:35.313Z,97421.72
2019-03-02T08:37:01.918Z,97415.55
2019-03-02T08:39:28.781Z,97418.92
2019-03-02T08:41:55.704Z,97420.95
2019-03-02T08:44:22.767Z,97414.05
2019-03-02T08:46:49.603Z,97417.08
2019-03-02T08:49:16.962Z,97415.07
2019-03-02T08:51:43.621Z,97419.35
2019-03-02T08:54:10.547Z,97422.47
2019-03-02T08:56:37.181Z,97421.05
2019-03-02T08:59:03.836Z,97424.01
2019-03-02T09:01:30.628Z,97417.61
2019-03-02T09:03:57.312Z,97421.47
2019-03-02T09:06:24.182Z,97423.99
2019-03-02T09:08:50.829Z,97421.53
2019-03-02T09:11:17.825Z,97420.11
2019-03-02T09:13:44.720Z,97416.95
2019-03-02T09:16:11.430Z,97413.39
2019-03-02T09:18:45.332Z,97423.16
2019-03-02T09:21:08.986Z,97424.28
2019-03-02T09:23:37.106Z,97421.36
2019-03-02T09:26:04.525Z,97414.77
2019-03-02T09:28:32.085Z,97414.66
2019-03-02T09:31:02.075Z,97413.23
2019-03-02T09:33:28.773Z,97411.41
2019-03-02T09:35:56.397Z,97411.11
2019-03-02T09:38:23.330Z,97412.94
2019-03-02T09:40:50.770Z,97417.90
2019-03-02T09:43:17.573Z,97415.86
2019-03-02T09:45:44.755Z,97413.44
2019-03-02T09:48:12.692Z,97408.09
2019-03-02T09:50:39.284Z,97409.33
2019-03-02T09:53:05.957Z,97407.38
2019-03-02T09:55:33.128Z,97401.09
2019-03-02T09:57:59.859Z,97402.86
2019-03-02T10:00:26.792Z,97390.62
2019-03-02T10:02:53.705Z,97392.00
2019-03-02T10:05:20.383Z,97404.06
2019-03-02T10:07:47.887Z,97397.37
2019-03-02T10:10:14.530Z,97400.88
2019-03-02T10:12:41.478Z,97398.62
2019-03-02T10:15:08.143Z,97399.88
2019-03-02T10:17:38.495Z,97402.45
2019-03-02T10:20:05.233Z,97401.93
2019-03-02T10:22:32.277Z,97399.45
2019-03-02T10:24:58.955Z,97404.61
2019-03-02T10:27:25.977Z,97404.66
2019-03-02T10:29:52.857Z,97395.65
2019-03-02T10:32:20.009Z,97400.02
2019-03-02T10:34:48.094Z,97397.50
2019-03-02T10:37:14.885Z,97403.01
2019-03-02T10:39:41.871Z,97392.41
2019-03-02T10:42:13.432Z,97386.88
2019-03-02T10:44:38.685Z,97381.25
2019-03-02T10:47:05.544Z,97386.36
2019-03-02T10:49:32.295Z,97388.32
2019-03-02T10:52:02.831Z,97382.89
2019-03-02T10:54:31.684Z,97386.30
2019-03-02T10:56:59.833Z,97389.41
2019-03-02T10:59:26.664Z,97396.70
2019-03-02T11:01:53.576Z,97387.18
2019-03-02T11:04:20.334Z,97382.19
2019-03-02T11:06:49.402Z,97378.71
2019-03-02T11:09:22.340Z,97382.59
2019-03-02T11:11:44.869Z,97382.77
2019-03-02T11:14:11.489Z,97380.06
2019-03-02T11:16:38.532Z,97383.83
2019-03-02T11:19:07.995Z,97380.81
2019-03-02T11:21:35.524Z,97376.41
2019-03-02T11:24:03.352Z,97381.72
2019-03-02T11:26:30.674Z,97385.42
2019-03-02T11:28:57.695Z,97379.27
2019-03-02T11:31:25.641Z,97375.07
2019-03-02T11:33:53.452Z,97372.66
2019-03-02T11:36:20.968Z,97369.08
2019-03-02T11:38:49.056Z,97365.80
2019-03-02T11:41:15.840Z,97367.21
2019-03-02T11:43:42.657Z,97360.67
2019-03-02T11:46:09.285Z,97351.16
2019-03-02T11:48:35.907Z,97348.39
2019-03-02T11:51:03.555Z,97349.55
2019-03-02T11:53:30.657Z,97347.05
2019-03-02T11:56:09.511Z,97349.01
2019-03-02T11:58:36.976Z,97339.03
2019-03-02T12:01:06.549Z,97338.98
2019-03-02T12:03:35.369Z,97338.14
2019-03-02T12:06:05.988Z,97340.14
2019-03-02T12:08:31.532Z,97323.92
2019-03-02T12:10:58.417Z,97327.95
2019-03-02T12:13:27.752Z,97330.85
2019-03-02T12:15:54.307Z,97325.81
2019-03-02T12:18:20.932Z,97326.17
2019-03-02T12:20:47.894Z,97327.52
2019-03-02T12:23:14.510Z,97329.53
2019-03-02T12:25:42.032Z,97323.78
2019-03-02T12:28:08.940Z,97316.42
2019-03-02T12:30:36.158Z,97316.48
2019-03-02T12:33:04.124Z,97323.36
2019-03-02T12:35:34.451Z,97314.85
2019-03-02T12:37:59.766Z,97313.73
2019-03-02T12:40:26.585Z,97306.80
2019-03-02T12:42:54.559Z,97311.56
2019-03-02T12:45:21.262Z,97308.54
2019-03-02T12:47:48.318Z,97303.06
2019-03-02T12:50:18.914Z,97299.22
2019-03-02T12:52:48.161Z,97305.16
2019-03-02T12:55:16.394Z,97305.47
2019-03-02T12:57:45.497Z,97298.09
2019-03-02T13:00:10.598Z,97302.95
2019-03-02T13:02:37.403Z,97299.17
2019-03-02T13:05:06.573Z,97299.84
2019-03-02T13:07:35.733Z,97300.63
2019-03-02T13:10:02.625Z,97298.17
2019-03-02T13:12:32.436Z,97291.94
2019-03-02T13:14:59.675Z,97289.23
2019-03-02T13:17:33.140Z,97288.50
2019-03-02T13:20:02.745Z,97291.30
2019-03-02T13:22:33.495Z,97294.05
2019-03-02T13:25:03.579Z,97301.92
2019-03-02T13:27:31.040Z,97300.22
2019-03-02T13:29:59.869Z,97294.23
2019-03-02T13:32:28.826Z,97300.25
2019-03-02T13:35:00.497Z,97295.16
2019-03-02T13:37:29.767Z,97290.88
2019-03-02T13:39:56.943Z,97288.50
2019-03-02T13:42:27.347Z,97304.56
2019-03-02T13:45:00.322Z,97297.86
2019-03-02T13:47:27.241Z,97299.22
2019-03-02T13:49:55.341Z,97298.20
2019-03-02T13:52:22.081Z,97298.41
2019-03-02T13:54:50.889Z,97297.72
2019-03-02T13:57:17.475Z,97294.19
2019-03-02T13:59:46.199Z,97295.41
2019-03-02T14:02:12.698Z,97295.84
2019-03-02T14:04:39.561Z,97290.40
2019-03-02T14:07:10.808Z,97291.33
2019-03-02T14:09:37.974Z,97291.58
2019-03-02T14:12:08.107Z,97289.83
2019-03-02T14:14:41.092Z,97295.27
2019-03-02T14:17:08.316Z,97295.20
2019-03-02T14:19:42.018Z,97298.52
2019-03-02T14:22:11.312Z,97297.22
2019-03-02T14:24:38.911Z,97292.50
2019-03-02T14:27:05.957Z,97296.38
2019-03-02T14:29:42.960Z,97292.34
2019-03-02T14:32:13.500Z,97291.74
2019-03-02T14:34:40.273Z,97293.35
2019-03-02T14:37:08.015Z,97292.58
2019-03-02T14:39:38.065Z,97294.47
2019-03-02T14:42:08.720Z,97292.36
2019-03-02T14:44:39.500Z,97300.19
2019-03-02T14:47:06.408Z,97295.63
2019-03-02T14:49:34.068Z,97294.59
2019-03-02T14:52:05.986Z,97307.66
2019-03-02T14:54:34.018Z,97303.89
2019-03-02T14:57:05.108Z,97309.05
2019-03-02T14:59:34.703Z,97309.51
2019-03-02T15:02:02.302Z,97307.56
2019-03-02T15:04:31.268Z,97309.70
2019-03-02T15:06:58.123Z,97308.34
2019-03-02T15:09:26.277Z,97311.81
2019-03-02T15:11:53.242Z,97311.59
2019-03-02T15:14:20.467Z,97313.20
2019-03-02T15:16:47.287Z,97310.46
2019-03-02T15:19:15.995Z,97319.03
2019-03-02T15:21:47.742Z,97316.16
2019-03-02T15:24:14.995Z,97312.47
2019-03-02T15:26:43.287Z,97317.97
2019-03-02T15:29:25.085Z,97320.55
2019-03-02T15:31:58.390Z,97316.70
2019-03-02T15:34:24.735Z,97327.98
2019-03-02T15:36:53.907Z,97326.22
2019-03-02T15:39:22.810Z,97325.04
2019-03-02T15:41:50.268Z,97323.87
2019-03-02T15:44:22.685Z,97328.41
2019-03-02T15:46:50.250Z,97322.66
2019-03-02T15:49:18.262Z,97323.92
2019-03-02T15:54:22.986Z,97338.36
2019-03-02T15:56:49.286Z,97333.08
2019-03-02T15:59:19.118Z,97333.73
2019-03-02T16:01:45.521Z,97341.97
2019-03-02T16:04:31.787Z,97338.41
2019-03-02T16:06:54.981Z,97336.50
2019-03-02T16:09:25.215Z,97333.33
2019-03-02T16:11:50.332Z,97338.88
2019-03-02T16:14:18.528Z,97340.05
2019-03-02T16:16:45.450Z,97338.80
2019-03-02T16:19:12.444Z,97344.68
2019-03-02T16:21:41.619Z,97347.13
2019-03-02T16:24:08.628Z,97345.90
2019-03-02T16:26:37.111Z,97351.45
2019-03-02T16:29:04.195Z,97344.95
2019-03-02T16:31:34.247Z,97356.08
2019-03-02T16:34:04.397Z,97357.11
2019-03-02T16:36:29.419Z,97361.30
2019-03-02T16:38:57.738Z,97364.55
2019-03-02T16:41:27.226Z,97360.63
2019-03-02T16:43:53.830Z,97357.86
2019-03-02T16:46:22.858Z,97368.17
2019-03-02T16:48:53.521Z,97372.77
2019-03-02T16:51:20.584Z,97374.36
2019-03-02T16:53:48.567Z,97379.18
2019-03-02T16:56:17.070Z,97376.88
2019-03-02T16:58:44.531Z,97380.70
2019-03-02T17:01:11.158Z,97380.46
2019-03-02T17:03:39.091Z,97381.31
2019-03-02T17:06:11.177Z,97385.89
2019-03-02T17:08:38.054Z,97393.69
2019-03-02T17:11:07.042Z,97393.12
2019-03-02T17:13:34.604Z,97393.48
2019-03-02T17:16:03.306Z,97401.10
2019-03-02T17:18:31.587Z,97398.62
2019-03-02T17:20:58.318Z,97409.20
2019-03-02T17:23:26.964Z,97413.36
2019-03-02T17:25:53.841Z,97411.50
2019-03-02T17:28:21.004Z,97414.55
2019-03-02T17:30:53.088Z,97417.31
2019-03-02T17:33:26.790Z,97419.64
2019-03-02T17:35:50.534Z,97429.58
2019-03-02T17:38:19.227Z,97432.44
2019-03-02T17:40:46.110Z,97431.41
2019-03-02T17:43:13.092Z,97432.63
2019-03-02T17:45:40.012Z,97449.09
2019-03-02T17:48:08.179Z,97452.34
2019-03-02T17:50:36.083Z,97453.34
2019-03-02T17:53:05.366Z,97449.02
2019-03-02T17:55:32.203Z,97456.76
2019-03-02T17:58:01.184Z,97464.73
2019-03-02T18:00:30.753Z,97469.20
2019-03-02T18:02:57.134Z,97469.09
2019-03-02T18:05:24.085Z,97470.83
2019-03-02T18:07:53.441Z,97482.89
2019-03-02T18:10:22.764Z,97488.50
2019-03-02T18:12:49.402Z,97489.12
2019-03-02T18:15:16.472Z,97487.77
2019-03-02T18:17:46.348Z,97487.45
2019-03-02T18:20:15.993Z,97493.91
2019-03-02T18:22:46.470Z,97493.02
2019-03-02T18:25:17.029Z,97497.54
2019-03-02T18:27:43.931Z,97498.42
2019-03-02T18:30:10.515Z,97507.24
2019-03-02T18:32:37.347Z,97503.11
2019-03-02T18:35:07.924Z,97504.62
2019-03-02T18:37:35.700Z,97505.34
2019-03-02T18:40:03.968Z,97503.03
2019-03-02T18:45:23.945Z,97504.02
2019-03-02T18:47:54.351Z,97501.98
2019-03-02T18:50:21.117Z,97504.23
2019-03-02T18:52:53.699Z,97510.77
2019-03-02T18:55:27.160Z,97510.19
2019-03-02T18:57:55.901Z,97508.83
2019-03-02T19:00:25.044Z,97513.08
2019-03-02T19:02:54.828Z,97515.94
2019-03-02T19:05:21.795Z,97517.44
2019-03-02T19:07:51.006Z,97529.48
2019-03-02T19:10:23.048Z,97532.59
2019-03-02T19:12:50.669Z,97527.64
2019-03-02T19:15:17.969Z,97536.77
2019-03-02T19:17:49.499Z,97534.83
2019-03-02T19:20:16.195Z,97532.95
2019-03-02T19:22:45.194Z,97539.25
2019-03-02T19:25:15.014Z,97544.99
2019-03-02T19:27:41.907Z,97545.32
2019-03-02T19:30:09.027Z,97540.71
2019-03-02T19:32:38.915Z,97542.13
2019-03-02T19:35:08.564Z,97548.67
2019-03-02T19:37:40.223Z,97548.84
2019-03-02T19:40:09.127Z,97552.50
2019-03-02T19:42:36.561Z,97559.29
2019-03-02T19:45:03.248Z,97563.44
2019-03-02T19:47:32.603Z,97560.16
2019-03-02T19:50:01.325Z,97562.56
2019-03-02T19:52:27.950Z,97559.14
2019-03-02T19:54:57.589Z,97557.23
2019-03-02T19:57:24.253Z,97555.69
2019-03-02T19:59:52.231Z,97554.80
2019-03-02T20:02:22.433Z,97557.11
2019-03-02T20:04:51.457Z,97560.16
2019-03-02T20:07:21.596Z,97561.89
2019-03-02T20:09:50.803Z,97570.63
2019-03-02T20:12:19.161Z,97572.99
2019-03-02T20:14:45.873Z,97568.44
2019-03-02T20:17:14.667Z,97574.70
2019-03-02T20:19:43.183Z,97574.77
2019-03-02T20:22:12.218Z,97577.61
2019-03-02T20:24:43.180Z,97574.55
2019-03-02T20:27:10.149Z,97577.82
2019-03-02T20:29:40.159Z,97585.61
2019-03-02T20:32:07.571Z,97588.39
2019-03-02T20:34:36.648Z,97595.39
2019-03-02T20:37:06.231Z,97599.17
2019-03-02T20:39:51.287Z,97599.34
2019-03-02T20:42:21.210Z,97598.63
2019-03-02T20:44:48.547Z,97602.02
2019-03-02T20:47:18.309Z,97603.51
2019-03-02T20:49:45.626Z,97611.03
2019-03-02T20:52:16.554Z,97602.33
2019-03-02T20:54:45.823Z,97606.24
2019-03-02T20:57:14.538Z,97604.72
2019-03-02T20:59:42.428Z,97595.23
2019-03-02T21:02:09.335Z,97607.64
2019-03-02T21:04:36.993Z,97605.86
2019-03-02T21:07:04.055Z,97600.16
2019-03-02T21:09:30.772Z,97597.02
2019-03-02T21:11:57.577Z,97595.64
2019-03-02T21:14:24.799Z,97597.48
2019-03-02T21:16:51.744Z,97603.97
2019-03-02T21:19:19.040Z,97609.38
2019-03-02T21:21:45.821Z,97603.27
2019-03-02T21:24:13.093Z,97602.77
2019-03-02T21:26:41.595Z,97595.00
2019-03-02T21:29:08.257Z,97599.06
2019-03-02T21:31:35.057Z,97596.45
2019-03-02T21:34:01.986Z,97599.48
2019-03-02T21:36:28.595Z,97588.39
2019-03-02T21:38:55.447Z,97594.13
2019-03-02T21:41:22.524Z,97594.12
2019-03-02T21:43:49.136Z,97595.70
2019-03-02T21:46:16.112Z,97595.95
2019-03-02T21:48:43.422Z,97599.95
2019-03-02T21:51:11.600Z,97597.73
2019-03-02T21:53:38.387Z,97597.66
2019-03-02T21:56:05.272Z,97598.29
2019-03-02T21:58:31.865Z,97597.02
2019-03-02T22:00:58.597Z,97588.94
2019-03-02T22:03:25.509Z,97580.66
2019-03-02T22:05:52.374Z,97586.05
2019-03-02T22:08:20.129Z,97581.98
2019-03-02T22:10:46.788Z,97584.48
2019-03-02T22:13:13.478Z,97581.77
2019-03-02T22:15:41.515Z,97587.41
2019-03-02T22:18:08.190Z,97586.47
2019-03-02T22:20:34.900Z,97579.94
2019-03-02T22:23:01.515Z,97579.02
2019-03-02T22:25:28.260Z,97585.02
2019-03-02T22:27:54.996Z,97586.38
2019-03-02T22:30:22.227Z,97588.12
2019-03-02T22:32:49.083Z,97587.36
2019-03-02T22:35:15.689Z,97592.27
2019-03-02T22:37:42.599Z,97596.16
2019-03-02T22:40:09.314Z,97591.05
2019-03-02T22:42:36.467Z,97588.02
2019-03-02T22:45:03.690Z,97599.73
2019-03-02T22:47:30.662Z,97601.89
2019-03-02T22:49:57.362Z,97598.40
2019-03-02T22:52:24.003Z,97598.88
2019-03-02T22:54:50.698Z,97601.31
2019-03-02T22:57:17.617Z,97603.80
2019-03-02T22:59:44.493Z,97599.83
2019-03-02T23:02:12.378Z,97600.48
2019-03-02T23:04:39.165Z,97606.16
2019-03-02T23:07:05.884Z,97601.76
2019-03-02T23:09:32.593Z,97601.40
2019-03-02T23:11:59.232Z,97603.11
2019-03-02T23:14:26.167Z,97595.47
2019-03-02T23:16:55.127Z,97588.59
2019-03-02T23:19:21.513Z,97594.23
2019-03-02T23:21:48.803Z,97600.32
2019-03-02T23:24:15.527Z,97596.12
2019-03-02T23:26:43.950Z,97598.17
2019-03-02T23:29:10.739Z,97602.80
2019-03-02T23:31:37.636Z,97594.91
2019-03-02T23:34:04.400Z,97591.70
2019-03-02T23:36:31.019Z,97595.70
2019-03-02T23:38:58.063Z,97593.20
2019-03-02T23:41:25.078Z,97593.68
2019-03-02T23:43:51.944Z,97583.43
2019-03-02T23:46:18.830Z,97583.51
2019-03-02T23:48:46.169Z,97584.37
2019-03-02T23:51:14.312Z,97583.58
2019-03-02T23:53:41.022Z,97574.77
2019-03-02T23:56:07.973Z,97549.95
2019-03-02T23:58:34.665Z,97555.17
